createdAt,value
2022-12-23T00:02:09.332Z,2.77
2022-12-23T00:05:12.613Z,5.87
2022-12-23T00:08:14.751Z,2.70
2022-12-23T00:11:20.530Z,7.63
2022-12-23T00:14:41.133Z,3.77
2022-12-23T00:17:45.104Z,5.67
2022-12-23T00:20:47.103Z,4.53
2022-12-23T00:23:51.444Z,6.13
2022-12-23T00:26:53.451Z,3.13
2022-12-23T00:29:55.561Z,3.83
2022-12-23T00:32:57.553Z,1.87
2022-12-23T00:36:00.202Z,4.13
2022-12-23T00:39:20.628Z,3.67
2022-12-23T00:42:41.116Z,3.00
2022-12-23T00:45:43.368Z,5.33
2022-12-23T00:49:04.324Z,4.73
2022-12-23T00:52:08.886Z,6.47
2022-12-23T00:55:10.997Z,6.40
2022-12-23T00:58:13.055Z,5.63
2022-12-23T01:01:33.689Z,3.20
2022-12-23T01:04:54.334Z,3.77
2022-12-23T01:07:56.268Z,5.23
2022-12-23T01:11:03.901Z,3.30
2022-12-23T01:14:06.067Z,3.97
2022-12-23T01:17:08.705Z,4.13
2022-12-23T01:20:11.449Z,6.10
2022-12-23T01:23:13.504Z,4.03
2022-12-23T01:26:15.833Z,5.93
2022-12-23T01:29:17.827Z,3.80
2022-12-23T01:32:20.203Z,4.73
2022-12-23T01:35:22.237Z,7.17
2022-12-23T01:38:24.221Z,3.80
2022-12-23T01:41:47.822Z,8.50
2022-12-23T01:44:56.816Z,2.80
2022-12-23T01:48:10.285Z,7.70
2022-12-23T01:51:23.460Z,8.40
2022-12-23T01:54:25.477Z,4.93
2022-12-23T01:57:29.065Z,5.80
2022-12-23T02:00:49.770Z,6.03
2022-12-23T02:03:56.243Z,6.70
2022-12-23T02:07:16.958Z,3.83
2022-12-23T02:10:19.005Z,5.40
2022-12-23T02:13:37.027Z,5.57
2022-12-23T02:16:47.775Z,8.10
2022-12-23T02:20:05.966Z,8.17
2022-12-23T02:23:45.513Z,3.83
2022-12-23T02:26:59.739Z,5.67
2022-12-23T02:30:20.124Z,5.83
2022-12-23T02:33:54.395Z,7.00
2022-12-23T02:37:08.641Z,4.87
2022-12-23T02:40:35.470Z,3.67
2022-12-23T02:44:30.336Z,6.80
2022-12-23T02:47:48.295Z,4.60
2022-12-23T02:50:53.651Z,3.87
2022-12-23T02:53:59.822Z,5.50
2022-12-23T02:57:05.957Z,4.60
2022-12-23T03:00:08.681Z,9.97
2022-12-23T03:03:10.945Z,4.47
2022-12-23T03:06:23.949Z,8.43
2022-12-23T03:10:00.419Z,7.70
2022-12-23T03:13:05.329Z,8.10
2022-12-23T03:16:30.243Z,7.40
2022-12-23T03:19:44.797Z,2.83
2022-12-23T03:23:00.271Z,6.00
2022-12-23T03:26:14.484Z,5.53
2022-12-23T03:29:24.739Z,6.87
2022-12-23T03:32:31.507Z,10.63
2022-12-23T03:35:41.191Z,6.30
2022-12-23T03:38:45.304Z,6.53
2022-12-23T03:42:05.008Z,13.67
2022-12-23T03:45:38.219Z,2.70
2022-12-23T03:48:46.488Z,4.67
2022-12-23T03:52:01.132Z,9.70
2022-12-23T03:55:07.624Z,8.03
2022-12-23T03:58:23.120Z,2.70
2022-12-23T04:01:49.770Z,7.23
2022-12-23T04:05:08.426Z,1.50
2022-12-23T04:08:31.435Z,6.03
2022-12-23T04:11:35.641Z,5.93
2022-12-23T04:14:39.123Z,5.17
2022-12-23T04:17:41.116Z,4.90
2022-12-23T04:20:43.164Z,5.03
2022-12-23T04:23:45.225Z,5.97
2022-12-23T04:26:47.292Z,3.33
2022-12-23T04:29:49.377Z,4.43
2022-12-23T04:32:51.489Z,2.87
2022-12-23T04:35:53.505Z,10.03
2022-12-23T04:38:55.595Z,4.67
2022-12-23T04:41:57.648Z,5.20
2022-12-23T04:44:59.816Z,4.13
2022-12-23T04:48:01.871Z,4.87
2022-12-23T04:51:04.206Z,7.33
2022-12-23T04:54:06.223Z,4.40
2022-12-23T04:57:08.231Z,3.10
2022-12-23T05:00:10.901Z,3.37
2022-12-23T05:03:13.089Z,7.47
2022-12-23T05:06:15.276Z,5.10
2022-12-23T05:09:17.320Z,4.03
2022-12-23T05:12:19.505Z,5.37
2022-12-23T05:15:21.544Z,7.73
2022-12-23T05:18:23.661Z,5.17
2022-12-23T05:21:25.871Z,1.93
2022-12-23T05:24:27.948Z,8.77
2022-12-23T05:27:29.952Z,6.73
2022-12-23T05:30:32.330Z,3.93
2022-12-23T05:33:35.907Z,4.67
2022-12-23T05:36:38.040Z,5.27
2022-12-23T05:39:40.077Z,2.47
2022-12-23T05:42:42.309Z,3.77
2022-12-23T05:45:45.057Z,1.87
2022-12-23T05:48:47.227Z,5.17
2022-12-23T05:51:49.229Z,8.03
2022-12-23T05:54:51.804Z,8.27
2022-12-23T05:57:54.528Z,4.53
2022-12-23T06:00:56.590Z,3.23
2022-12-23T06:03:58.712Z,7.73
2022-12-23T06:07:00.948Z,5.07
2022-12-23T06:10:03.109Z,5.20
2022-12-23T06:13:05.166Z,5.87
2022-12-23T06:16:07.448Z,3.47
2022-12-23T06:19:09.587Z,4.97
2022-12-23T06:22:11.605Z,3.67
2022-12-23T06:25:13.690Z,3.70
2022-12-23T06:28:15.774Z,4.00
2022-12-23T06:31:17.935Z,4.50
2022-12-23T06:34:20.077Z,2.43
2022-12-23T06:37:22.098Z,2.00
2022-12-23T06:40:24.103Z,1.27
2022-12-23T06:43:26.164Z,1.43
2022-12-23T06:46:28.584Z,1.53
2022-12-23T06:49:30.729Z,5.07
2022-12-23T06:52:32.713Z,5.33
2022-12-23T06:55:34.826Z,1.83
2022-12-23T06:58:36.878Z,2.00
2022-12-23T07:01:39.263Z,0.57
2022-12-23T07:04:41.412Z,1.03
2022-12-23T07:07:43.579Z,1.67
2022-12-23T07:10:45.786Z,2.83
2022-12-23T07:13:47.845Z,0.40
2022-12-23T07:16:50.131Z,1.67
2022-12-23T07:19:52.195Z,2.63
2022-12-23T07:22:55.501Z,3.60
2022-12-23T07:25:57.851Z,1.33
2022-12-23T07:28:59.930Z,2.63
2022-12-23T07:32:02.748Z,1.50
2022-12-23T07:35:05.335Z,3.90
2022-12-23T07:38:07.287Z,1.77
2022-12-23T07:41:09.357Z,3.27
2022-12-23T07:44:11.432Z,1.30
2022-12-23T07:47:13.530Z,2.07
2022-12-23T07:50:15.628Z,2.17
2022-12-23T07:53:17.615Z,2.97
2022-12-23T07:56:19.821Z,2.77
2022-12-23T07:59:22.029Z,2.50
2022-12-23T08:02:25.609Z,3.50
2022-12-23T08:05:27.910Z,2.83
2022-12-23T08:08:30.886Z,0.77
2022-12-23T08:11:32.896Z,1.77
2022-12-23T08:14:34.919Z,1.40
2022-12-23T08:17:36.967Z,2.07
2022-12-23T08:20:39.074Z,4.00
2022-12-23T08:23:43.676Z,1.30
2022-12-23T08:26:45.795Z,1.60
2022-12-23T08:29:47.813Z,4.53
2022-12-23T08:32:49.995Z,3.13
2022-12-23T08:35:55.068Z,4.77
2022-12-23T08:38:59.418Z,5.60
2022-12-23T08:42:01.555Z,3.50
2022-12-23T08:45:03.988Z,3.40
2022-12-23T08:48:07.057Z,1.70
2022-12-23T08:51:12.798Z,2.77
2022-12-23T08:54:14.938Z,3.00
2022-12-23T08:57:16.996Z,13.03
2022-12-23T09:00:19.147Z,1.80
2022-12-23T09:03:21.232Z,3.20
2022-12-23T09:06:29.583Z,6.87
2022-12-23T09:09:32.231Z,6.67
2022-12-23T09:12:34.286Z,1.93
2022-12-23T09:15:39.034Z,4.93
2022-12-23T09:18:42.182Z,2.43
2022-12-23T09:21:44.189Z,6.97
2022-12-23T09:24:46.209Z,5.87
2022-12-23T09:27:48.285Z,2.67
2022-12-23T09:30:50.470Z,5.10
2022-12-23T09:33:53.812Z,12.17
2022-12-23T09:36:55.953Z,8.27
2022-12-23T09:39:58.210Z,11.30
2022-12-23T09:43:23.587Z,8.23
2022-12-23T09:46:30.188Z,13.03
2022-12-23T09:49:33.180Z,12.57
2022-12-23T09:52:47.869Z,14.87
2022-12-23T09:56:14.312Z,16.87
2022-12-23T09:59:31.829Z,10.20
2022-12-23T10:02:58.862Z,7.47
2022-12-23T10:06:25.586Z,12.23
2022-12-23T10:09:29.052Z,10.37
2022-12-23T10:12:44.471Z,6.97
2022-12-23T10:15:49.711Z,8.20
2022-12-23T10:19:01.280Z,5.50
2022-12-23T10:22:06.418Z,4.07
2022-12-23T10:25:20.639Z,1.30
2022-12-23T10:28:23.314Z,0.60
2022-12-23T10:32:04.238Z,0.50
2022-12-23T10:35:36.764Z,1.90
2022-12-23T10:39:01.535Z,0.40
2022-12-23T10:42:29.883Z,0.30
2022-12-23T10:45:37.885Z,1.53
2022-12-23T10:49:00.607Z,0.33
2022-12-23T10:52:22.497Z,0.30
2022-12-23T10:55:33.540Z,1.13
2022-12-23T10:58:41.056Z,0.33
2022-12-23T11:01:48.982Z,0.43
2022-12-23T11:04:51.160Z,0.60
2022-12-23T11:07:54.895Z,0.30
2022-12-23T11:10:59.544Z,0.20
2022-12-23T11:14:01.580Z,0.20
2022-12-23T11:17:05.185Z,0.20
2022-12-23T11:20:19.949Z,0.43
2022-12-23T11:23:28.213Z,0.30
2022-12-23T11:26:30.372Z,0.30
2022-12-23T11:29:36.036Z,0.53
2022-12-23T11:32:38.931Z,0.43
2022-12-23T11:35:41.144Z,0.20
2022-12-23T11:39:03.147Z,0.20
2022-12-23T11:42:15.960Z,0.73
2022-12-23T11:45:23.853Z,0.20
2022-12-23T11:48:31.176Z,1.40
2022-12-23T11:51:33.370Z,0.40
2022-12-23T11:54:35.483Z,1.03
2022-12-23T11:57:45.102Z,0.13
2022-12-23T12:00:56.496Z,0.27
2022-12-23T12:04:03.420Z,0.97
2022-12-23T12:07:07.109Z,0.20
2022-12-23T12:10:18.423Z,0.30
2022-12-23T12:13:29.075Z,0.40
2022-12-23T12:16:31.112Z,0.30
2022-12-23T12:19:59.334Z,0.43
2022-12-23T12:23:07.191Z,0.20
2022-12-23T12:26:22.427Z,0.50
2022-12-23T12:29:43.834Z,0.80
2022-12-23T12:33:21.310Z,0.27
2022-12-23T12:36:30.686Z,0.43
2022-12-23T12:39:46.017Z,1.60
2022-12-23T12:43:05.144Z,0.70
2022-12-23T12:46:22.424Z,0.30
2022-12-23T12:49:45.474Z,0.30
2022-12-23T12:52:47.967Z,0.70
2022-12-23T12:55:56.998Z,0.43
2022-12-23T12:58:59.270Z,0.43
2022-12-23T13:02:38.790Z,0.50
2022-12-23T13:06:05.528Z,0.47
2022-12-23T13:09:49.122Z,0.60
2022-12-23T13:13:21.279Z,0.60
2022-12-23T13:16:32.271Z,0.60
2022-12-23T13:20:00.507Z,0.60
2022-12-23T13:23:44.017Z,0.53
2022-12-23T13:27:03.367Z,1.73
2022-12-23T13:30:07.298Z,0.50
2022-12-23T13:33:24.539Z,0.60
2022-12-23T13:36:35.036Z,0.80
2022-12-23T13:39:46.254Z,1.10
2022-12-23T13:42:57.465Z,0.73
2022-12-23T13:46:07.866Z,0.63
2022-12-23T13:49:19.304Z,0.70
2022-12-23T13:52:44.404Z,0.40
2022-12-23T13:56:03.619Z,0.50
2022-12-23T13:59:11.381Z,0.70
2022-12-23T14:02:35.444Z,1.50
2022-12-23T14:05:47.095Z,0.50
2022-12-23T14:08:52.051Z,0.53
2022-12-23T14:12:00.996Z,0.60
2022-12-23T14:15:21.314Z,2.00
2022-12-23T14:18:31.197Z,1.60
2022-12-23T14:21:59.733Z,0.50
2022-12-23T14:25:43.535Z,0.90
2022-12-23T14:28:51.829Z,0.70
2022-12-23T14:31:57.250Z,1.30
2022-12-23T14:35:24.020Z,0.47
2022-12-23T14:38:32.173Z,0.50
2022-12-23T14:41:38.996Z,2.60
2022-12-23T14:44:41.196Z,0.63
2022-12-23T14:47:46.606Z,0.50
2022-12-23T14:51:02.648Z,0.53
2022-12-23T14:54:11.074Z,0.53
2022-12-23T14:57:22.656Z,0.83
2022-12-23T15:00:24.808Z,0.40
2022-12-23T15:03:31.915Z,0.60
2022-12-23T15:06:39.876Z,0.67
2022-12-23T15:10:00.336Z,0.67
2022-12-23T15:13:03.324Z,0.90
2022-12-23T15:16:05.553Z,0.97
2022-12-23T15:19:21.149Z,0.57
2022-12-23T15:22:30.405Z,1.07
2022-12-23T15:25:39.527Z,0.83
2022-12-23T15:28:42.407Z,0.80
2022-12-23T15:31:49.561Z,0.77
2022-12-23T15:34:53.040Z,0.40
2022-12-23T15:37:56.371Z,0.40
2022-12-23T15:41:01.699Z,0.60
2022-12-23T15:44:03.946Z,1.40
2022-12-23T15:47:25.970Z,0.50
2022-12-23T15:50:29.230Z,0.30
2022-12-23T15:53:38.858Z,0.30
2022-12-23T15:56:42.130Z,0.40
2022-12-23T15:59:44.174Z,1.10
2022-12-23T16:03:04.017Z,2.73
2022-12-23T16:06:17.907Z,0.40
2022-12-23T16:09:19.867Z,0.60
2022-12-23T16:12:27.553Z,1.30
2022-12-23T16:15:32.772Z,1.60
2022-12-23T16:18:46.895Z,2.03
2022-12-23T16:21:49.851Z,0.33
2022-12-23T16:25:03.564Z,0.57
2022-12-23T16:28:24.660Z,2.83
2022-12-23T16:31:26.897Z,1.20
2022-12-23T16:34:32.117Z,0.53
2022-12-23T16:37:34.190Z,0.93
2022-12-23T16:40:36.549Z,1.17
2022-12-23T16:43:39.183Z,0.97
2022-12-23T16:46:44.961Z,0.57
2022-12-23T16:49:47.123Z,2.70
2022-12-23T16:52:49.219Z,1.87
2022-12-23T16:55:56.649Z,3.70
2022-12-23T16:59:00.498Z,0.70
2022-12-23T17:02:03.941Z,1.17
2022-12-23T17:05:08.043Z,1.70
2022-12-23T17:08:10.563Z,0.43
2022-12-23T17:11:26.753Z,0.60
2022-12-23T17:14:28.844Z,0.80
2022-12-23T17:17:30.931Z,0.83
2022-12-23T17:20:32.948Z,0.53
2022-12-23T17:23:34.909Z,1.70
2022-12-23T17:26:37.490Z,0.87
2022-12-23T17:29:39.516Z,0.40
2022-12-23T17:32:41.849Z,0.93
2022-12-23T17:35:43.888Z,0.53
2022-12-23T17:38:45.851Z,1.37
2022-12-23T17:41:48.676Z,0.37
2022-12-23T17:44:52.080Z,0.40
2022-12-23T17:47:54.140Z,1.13
2022-12-23T17:50:56.225Z,1.33
2022-12-23T17:53:59.462Z,1.10
2022-12-23T17:57:01.820Z,1.00
2022-12-23T18:00:04.441Z,1.80
2022-12-23T18:03:31.612Z,0.50
2022-12-23T18:06:34.026Z,2.70
2022-12-23T18:09:36.118Z,0.60
2022-12-23T18:12:40.605Z,0.47
2022-12-23T18:15:44.419Z,0.33
2022-12-23T18:18:47.159Z,0.50
2022-12-23T18:21:50.722Z,2.30
2022-12-23T18:24:58.872Z,1.40
2022-12-23T18:28:01.576Z,0.30
2022-12-23T18:31:03.775Z,0.50
2022-12-23T18:34:05.923Z,0.67
2022-12-23T18:37:09.265Z,3.20
2022-12-23T18:40:11.696Z,0.97
2022-12-23T18:43:25.135Z,1.00
2022-12-23T18:46:27.231Z,0.80
2022-12-23T18:49:29.262Z,0.80
2022-12-23T18:52:31.391Z,2.20
2022-12-23T18:55:33.931Z,1.57
2022-12-23T18:58:35.936Z,1.30
2022-12-23T19:01:38.201Z,4.30
2022-12-23T19:04:40.234Z,1.20
2022-12-23T19:07:42.771Z,1.30
2022-12-23T19:10:47.049Z,1.57
2022-12-23T19:13:49.031Z,1.40
2022-12-23T19:16:52.550Z,2.70
2022-12-23T19:19:54.947Z,2.17
2022-12-23T19:22:56.951Z,4.17
2022-12-23T19:25:59.023Z,1.47
2022-12-23T19:29:01.196Z,1.93
2022-12-23T19:32:03.308Z,4.13
2022-12-23T19:35:06.075Z,1.53
2022-12-23T19:38:08.505Z,1.50
2022-12-23T19:41:11.085Z,1.87
2022-12-23T19:44:13.788Z,1.87
2022-12-23T19:47:16.001Z,1.87
2022-12-23T19:50:19.989Z,2.07
2022-12-23T19:53:22.259Z,2.87
2022-12-23T19:56:25.304Z,4.33
2022-12-23T19:59:27.762Z,3.20
2022-12-23T20:02:31.007Z,3.13
2022-12-23T20:05:33.191Z,3.17
2022-12-23T20:08:35.648Z,2.33
2022-12-23T20:11:41.126Z,3.53
2022-12-23T20:14:43.436Z,4.30
2022-12-23T20:17:45.456Z,4.87
2022-12-23T20:20:47.960Z,4.13
2022-12-23T20:23:50.626Z,3.43
2022-12-23T20:26:52.851Z,5.23
2022-12-23T20:29:55.277Z,3.83
2022-12-23T20:32:58.888Z,6.20
2022-12-23T20:36:01.060Z,3.93
2022-12-23T20:39:04.770Z,3.20
2022-12-23T20:42:07.096Z,3.70
2022-12-23T20:45:09.711Z,4.67
2022-12-23T20:48:11.737Z,5.27
2022-12-23T20:51:26.109Z,5.30
2022-12-23T20:54:33.271Z,3.70
2022-12-23T20:57:36.133Z,4.73
2022-12-23T21:00:38.143Z,2.87
2022-12-23T21:03:40.958Z,3.77
2022-12-23T21:06:43.632Z,7.60
2022-12-23T21:09:45.784Z,4.30
2022-12-23T21:12:47.792Z,6.27
2022-12-23T21:15:50.044Z,3.10
2022-12-23T21:18:53.466Z,4.40
2022-12-23T21:21:55.697Z,3.67
2022-12-23T21:24:57.739Z,4.63
2022-12-23T21:27:59.740Z,3.30
2022-12-23T21:31:01.955Z,5.43
2022-12-23T21:34:04.862Z,4.67
2022-12-23T21:37:06.893Z,3.20
2022-12-23T21:40:09.620Z,4.93
2022-12-23T21:43:11.665Z,2.73
2022-12-23T21:46:16.335Z,5.27
2022-12-23T21:49:19.599Z,4.23
2022-12-23T21:52:21.684Z,4.40
2022-12-23T21:55:23.729Z,3.67
2022-12-23T21:58:25.791Z,5.50
2022-12-23T22:01:28.528Z,3.73
2022-12-23T22:04:30.609Z,4.83
2022-12-23T22:07:32.640Z,5.03
2022-12-23T22:10:38.727Z,3.90
2022-12-23T22:13:41.477Z,4.50
2022-12-23T22:16:44.189Z,4.30
2022-12-23T22:19:46.278Z,3.63
2022-12-23T22:22:48.949Z,5.60
2022-12-23T22:25:55.317Z,3.70
2022-12-23T22:29:00.429Z,3.87
2022-12-23T22:32:02.558Z,6.17
2022-12-23T22:35:05.031Z,3.37
2022-12-23T22:38:08.111Z,4.10
2022-12-23T22:41:10.904Z,4.33
2022-12-23T22:44:16.885Z,3.10
2022-12-23T22:47:19.172Z,2.93
2022-12-23T22:50:21.268Z,2.37
2022-12-23T22:53:29.350Z,2.90
2022-12-23T22:56:31.849Z,2.10
2022-12-23T22:59:33.933Z,3.13
2022-12-23T23:02:36.016Z,3.93
2022-12-23T23:05:38.184Z,3.70
2022-12-23T23:08:42.160Z,1.77
2022-12-23T23:11:44.867Z,3.23
2022-12-23T23:14:53.036Z,2.27
2022-12-23T23:17:56.615Z,2.03
2022-12-23T23:20:58.721Z,3.97
2022-12-23T23:24:00.717Z,2.90
2022-12-23T23:27:02.760Z,2.50
2022-12-23T23:30:05.330Z,2.33
2022-12-23T23:33:08.894Z,3.03
2022-12-23T23:36:11.239Z,2.33
2022-12-23T23:39:13.538Z,3.47
2022-12-23T23:42:17.071Z,1.47
2022-12-23T23:45:19.118Z,1.93
2022-12-23T23:48:21.739Z,3.13
2022-12-23T23:51:23.805Z,2.33
2022-12-23T23:54:26.031Z,2.30
2022-12-23T23:57:28.305Z,2.83
